Time;durP1;ratioP1;P1;durP2;ratioP2;P2;SDS_P1;SDS_P2;PMS_P1;PMS_P2;Temp;Humidity;BMP_temperature;BMP_pressure;BME280_temperature;BME280_humidity;BME280_pressure;Samples;Min_cycle;Max_cycle;Signal;HPM_P1;HPM_P2
2023/03/21 00:02:02;;;;;;;4.30;2.90;;;11.30;99.90;;;;;;5038584;28;20297;-70
2023/03/21 00:04:28;;;;;;;4.27;2.53;;;11.30;99.90;;;;;;5008410;28;20459;-70
2023/03/21 00:06:54;;;;;;;4.33;3.03;;;11.30;99.90;;;;;;5022857;28;20474;-70
2023/03/21 00:09:20;;;;;;;2.90;2.43;;;11.30;99.90;;;;;;5022057;28;20245;-70
2023/03/21 00:11:46;;;;;;;3.20;2.73;;;11.30;99.90;;;;;;5006325;28;20228;-70
2023/03/21 00:14:17;;;;;;;3.00;2.70;;;11.30;99.90;;;;;;5045755;28;20475;-70
2023/03/21 00:16:44;;;;;;;2.30;2.10;;;11.30;99.90;;;;;;5035040;28;20215;-69
2023/03/21 00:19:10;;;;;;;2.77;2.37;;;11.30;99.90;;;;;;5025823;28;20451;-70
2023/03/21 00:21:37;;;;;;;6.20;2.73;;;11.20;99.90;;;;;;5028358;28;21044;-70
2023/03/21 00:24:03;;;;;;;3.97;3.10;;;11.20;99.90;;;;;;5026733;28;20472;-68
2023/03/21 00:26:30;;;;;;;6.10;3.60;;;11.20;99.90;;;;;;5040659;28;20498;-71
2023/03/21 00:28:56;;;;;;;4.73;3.87;;;11.20;99.90;;;;;;5026184;28;20460;-70
2023/03/21 00:31:22;;;;;;;3.60;3.30;;;11.20;99.90;;;;;;5022959;28;20466;-69
2023/03/21 00:33:49;;;;;;;4.13;3.10;;;11.20;99.90;;;;;;5010573;28;20471;-70
2023/03/21 00:36:15;;;;;;;3.03;2.80;;;11.20;99.90;;;;;;5048733;28;20468;-70
2023/03/21 00:38:41;;;;;;;3.50;3.20;;;11.20;99.90;;;;;;5008667;28;20464;-70
2023/03/21 00:41:09;;;;;;;4.10;3.03;;;11.20;99.90;;;;;;5021180;28;20986;-70
2023/03/21 00:43:35;;;;;;;3.60;3.30;;;11.20;99.90;;;;;;5016396;28;20227;-70
2023/03/21 00:46:01;;;;;;;5.60;2.67;;;11.20;99.90;;;;;;5025305;28;20535;-70
2023/03/21 00:48:29;;;;;;;3.80;3.00;;;11.20;99.90;;;;;;5016250;28;20466;-70
2023/03/21 00:50:56;;;;;;;4.37;3.20;;;11.20;99.90;;;;;;5015558;28;20452;-69
2023/03/21 00:53:22;;;;;;;3.63;2.90;;;11.20;99.90;;;;;;5040428;28;20471;-69
2023/03/21 00:55:48;;;;;;;3.53;2.60;;;11.20;99.90;;;;;;5034447;28;20442;-70
2023/03/21 00:58:15;;;;;;;3.20;2.60;;;11.20;99.90;;;;;;5007670;28;20458;-69
2023/03/21 01:00:40;;;;;;;2.80;2.60;;;11.20;99.90;;;;;;5021593;28;20472;-71
2023/03/21 01:03:09;;;;;;;3.90;2.60;;;11.20;99.90;;;;;;5019479;28;20473;-70
2023/03/21 01:08:26;;;;;;;6.47;3.40;;;11.10;99.90;;;;;;5018930;28;20533;-71
2023/03/21 01:10:53;;;;;;;6.63;3.57;;;11.10;99.90;;;;;;5025062;28;20471;-71
2023/03/21 01:13:21;;;;;;;4.43;3.50;;;11.10;99.90;;;;;;5043592;28;20487;-70
2023/03/21 01:15:51;;;;;;;5.60;3.40;;;11.10;99.90;;;;;;5042437;28;20454;-71
2023/03/21 01:18:22;;;;;;;4.70;3.87;;;11.10;99.90;;;;;;5019372;28;20461;-70
2023/03/21 01:20:47;;;;;;;9.03;2.80;;;11.10;99.90;;;;;;5021140;28;20512;-71
2023/03/21 01:23:15;;;;;;;4.33;2.90;;;11.10;99.90;;;;;;5025311;28;20468;-70
2023/03/21 01:25:41;;;;;;;3.33;3.03;;;11.00;99.90;;;;;;5029600;28;20237;-70
2023/03/21 01:28:07;;;;;;;4.10;2.80;;;11.00;99.90;;;;;;5013091;28;20983;-70
2023/03/21 01:30:34;;;;;;;6.27;2.83;;;11.10;99.90;;;;;;5029984;28;20492;-70
2023/03/21 01:33:01;;;;;;;8.60;3.23;;;11.00;99.90;;;;;;5030676;28;20537;-70
2023/03/21 01:35:27;;;;;;;3.73;2.40;;;11.00;99.90;;;;;;5018951;28;20460;-71
2023/03/21 01:37:53;;;;;;;2.40;2.20;;;11.00;99.90;;;;;;5007646;28;20297;-70
2023/03/21 01:40:22;;;;;;;2.70;2.30;;;11.00;99.90;;;;;;5005961;28;20457;-71
2023/03/21 01:42:50;;;;;;;3.07;2.73;;;11.00;99.90;;;;;;5022388;28;20260;-70
2023/03/21 01:45:56;;;;;;;4.77;2.90;;;11.00;99.90;;;;;;5009124;28;20457;-70
2023/03/21 01:48:27;;;;;;;2.17;1.93;;;11.00;99.90;;;;;;5010656;28;20459;-70
2023/03/21 01:50:57;;;;;;;3.83;2.40;;;11.00;99.90;;;;;;5013639;28;20463;-70
2023/03/21 01:53:36;;;;;;;2.60;2.37;;;11.00;99.90;;;;;;5022236;28;20500;-70
2023/03/21 01:56:30;;;;;;;3.50;2.30;;;11.00;99.90;;;;;;5028716;28;20465;-70
2023/03/21 01:59:27;;;;;;;4.27;2.50;;;11.00;99.90;;;;;;5026011;28;20443;-70
2023/03/21 02:02:16;;;;;;;2.90;2.07;;;11.00;99.90;;;;;;5003615;28;20464;-71
2023/03/21 02:05:02;;;;;;;5.50;2.90;;;11.00;99.90;;;;;;5017840;28;20463;-70
2023/03/21 02:07:34;;;;;;;2.70;2.37;;;11.00;99.90;;;;;;5003021;28;20462;-70
2023/03/21 02:10:09;;;;;;;5.20;2.50;;;11.00;99.90;;;;;;5011686;28;20447;-70
2023/03/21 02:12:38;;;;;;;3.93;2.20;;;11.00;99.90;;;;;;5000310;28;20463;-70
2023/03/21 02:15:07;;;;;;;3.70;2.27;;;11.00;99.90;;;;;;5017010;28;20481;-70
2023/03/21 02:18:16;;;;;;;2.73;2.43;;;11.00;99.90;;;;;;5020263;28;20478;-70
2023/03/21 02:21:10;;;;;;;3.20;2.90;;;11.00;99.90;;;;;;5037470;28;20447;-70
2023/03/21 02:23:59;;;;;;;5.17;2.60;;;10.90;99.90;;;;;;5004575;28;20453;-70
2023/03/21 02:26:43;;;;;;;4.00;2.33;;;10.90;99.90;;;;;;5010909;28;20469;-70
2023/03/21 02:29:26;;;;;;;2.50;2.30;;;10.90;99.90;;;;;;5001694;28;20517;-70
2023/03/21 02:32:13;;;;;;;5.60;3.07;;;10.80;99.90;;;;;;5007442;28;20823;-71
2023/03/21 02:35:20;;;;;;;3.80;2.93;;;10.90;99.90;;;;;;5030782;28;20572;-70
2023/03/21 02:37:57;;;;;;;2.60;2.40;;;10.90;99.90;;;;;;5003614;28;20484;-71
2023/03/21 02:40:31;;;;;;;4.60;2.73;;;10.90;99.90;;;;;;5005068;28;20495;-71
2023/03/21 02:43:07;;;;;;;7.73;3.20;;;10.80;99.90;;;;;;5053189;28;20481;-70
2023/03/21 02:46:05;;;;;;;3.23;2.93;;;10.80;99.90;;;;;;5052950;28;20474;-70
2023/03/21 02:48:38;;;;;;;5.40;2.50;;;10.80;99.90;;;;;;5018847;28;20471;-70
2023/03/21 02:51:06;;;;;;;2.47;2.27;;;10.80;99.90;;;;;;5033647;28;20478;-71
2023/03/21 02:53:37;;;;;;;4.63;2.30;;;10.80;99.90;;;;;;5036790;28;20836;-70
2023/03/21 02:56:09;;;;;;;2.60;2.20;;;10.80;99.90;;;;;;5057676;28;20459;-71
2023/03/21 02:58:41;;;;;;;3.73;2.70;;;10.80;99.90;;;;;;5014888;28;20466;-72
2023/03/21 03:01:08;;;;;;;7.60;3.10;;;10.80;99.90;;;;;;5022548;28;20492;-71
2023/03/21 03:03:38;;;;;;;10.50;3.23;;;10.80;99.90;;;;;;5000420;28;20469;-70
2023/03/21 03:06:24;;;;;;;2.70;2.07;;;10.80;99.90;;;;;;5035623;28;20456;-70
2023/03/21 03:08:56;;;;;;;3.30;2.77;;;10.80;99.90;;;;;;5012397;28;20444;-70
2023/03/21 03:11:40;;;;;;;4.30;2.40;;;10.80;99.90;;;;;;5016797;28;20486;-70
2023/03/21 03:14:30;;;;;;;3.60;2.27;;;10.80;99.90;;;;;;5036205;28;20480;-71
2023/03/21 03:17:21;;;;;;;3.33;2.20;;;10.80;99.90;;;;;;5014582;28;20508;-69
2023/03/21 03:20:19;;;;;;;4.37;2.33;;;10.80;99.90;;;;;;5035318;28;21038;-71
2023/03/21 03:23:08;;;;;;;3.73;2.40;;;10.80;99.90;;;;;;4983685;28;20458;-70
2023/03/21 03:25:48;;;;;;;3.27;2.10;;;10.80;99.90;;;;;;5038578;28;20570;-70
2023/03/21 03:28:20;;;;;;;2.67;2.40;;;10.80;99.90;;;;;;5016083;28;20458;-70
2023/03/21 03:30:48;;;;;;;3.90;2.67;;;10.80;99.90;;;;;;5005556;28;20461;-70
2023/03/21 03:33:15;;;;;;;3.17;2.40;;;10.80;99.90;;;;;;5023969;28;20476;-71
2023/03/21 03:35:43;;;;;;;5.20;2.17;;;10.80;99.90;;;;;;5003147;28;20459;-70
2023/03/21 03:38:10;;;;;;;3.20;2.40;;;10.80;99.90;;;;;;5017018;28;20534;-70
2023/03/21 03:40:47;;;;;;;5.80;2.03;;;10.80;99.90;;;;;;5010927;28;20550;-71
2023/03/21 03:43:46;;;;;;;8.63;3.00;;;10.70;99.90;;;;;;5023281;28;20830;-70
2023/03/21 03:46:38;;;;;;;5.27;2.97;;;10.60;99.90;;;;;;5019976;28;20557;-70
2023/03/21 03:49:12;;;;;;;2.80;2.50;;;10.70;99.90;;;;;;4990527;28;20462;-71
2023/03/21 03:52:03;;;;;;;4.63;2.23;;;10.70;99.90;;;;;;5018478;28;20463;-71
2023/03/21 03:54:41;;;;;;;4.57;2.70;;;10.80;99.90;;;;;;5017919;28;20523;-70
2023/03/21 03:57:07;;;;;;;2.80;2.47;;;10.70;99.90;;;;;;5027137;28;20454;-70
2023/03/21 03:59:37;;;;;;;5.70;2.90;;;10.80;99.90;;;;;;5023351;28;20463;-70
2023/03/21 04:02:19;;;;;;;4.60;3.10;;;10.70;99.90;;;;;;5012869;28;20497;-70
2023/03/21 04:04:45;;;;;;;3.97;2.67;;;10.70;99.90;;;;;;5022884;28;20519;-70
2023/03/21 04:07:12;;;;;;;7.63;3.37;;;10.80;99.90;;;;;;5022529;28;20999;-71
2023/03/21 04:09:39;;;;;;;4.93;3.40;;;10.80;99.90;;;;;;5019573;28;20482;-71
2023/03/21 04:12:04;;;;;;;4.37;3.20;;;10.80;99.90;;;;;;5027036;28;20481;-70
2023/03/21 04:14:30;;;;;;;6.20;4.20;;;10.80;99.90;;;;;;5023971;28;20241;-70
2023/03/21 04:16:56;;;;;;;9.70;3.70;;;10.70;99.90;;;;;;5007989;28;20493;-71
2023/03/21 04:19:22;;;;;;;6.83;4.30;;;10.70;99.90;;;;;;5006120;28;20218;-70
2023/03/21 04:21:48;;;;;;;8.17;4.10;;;10.70;99.90;;;;;;5026013;28;20691;-70
2023/03/21 04:24:17;;;;;;;5.13;3.93;;;10.80;99.90;;;;;;5015071;28;20549;-69
2023/03/21 04:26:43;;;;;;;5.10;3.67;;;10.70;99.90;;;;;;5003800;28;20896;-71
2023/03/21 04:29:32;;;;;;;5.70;4.17;;;10.80;99.90;;;;;;5025699;28;20508;-71
2023/03/21 04:32:16;;;;;;;6.20;3.60;;;10.70;99.90;;;;;;5043509;28;20520;-70
2023/03/21 04:34:48;;;;;;;2.90;2.60;;;10.70;99.90;;;;;;4997976;28;20472;-70
2023/03/21 04:37:16;;;;;;;6.10;3.47;;;10.70;99.90;;;;;;4999696;28;20473;-70
2023/03/21 04:39:42;;;;;;;4.77;2.70;;;10.70;99.90;;;;;;5022323;28;20538;-69
2023/03/21 04:42:08;;;;;;;3.27;2.90;;;10.80;99.90;;;;;;5021897;28;20546;-71
2023/03/21 04:44:34;;;;;;;3.07;2.50;;;10.80;99.90;;;;;;5006332;28;20272;-70
2023/03/21 04:47:01;;;;;;;4.40;2.63;;;10.70;99.90;;;;;;5025615;28;20221;-70
2023/03/21 04:49:27;;;;;;;5.13;3.77;;;10.70;99.90;;;;;;5023122;28;20832;-70
2023/03/21 04:51:52;;;;;;;9.50;4.00;;;10.70;99.90;;;;;;5025421;28;20243;-70
2023/03/21 04:54:19;;;;;;;5.00;3.83;;;10.70;99.90;;;;;;5021977;28;20233;-70
2023/03/21 04:56:45;;;;;;;4.00;3.60;;;10.70;99.90;;;;;;5037056;28;20603;-71
2023/03/21 04:59:14;;;;;;;7.63;4.60;;;10.70;99.90;;;;;;5007184;28;20472;-71
2023/03/21 05:01:42;;;;;;;8.50;5.00;;;10.70;99.90;;;;;;5005041;28;20515;-70
2023/03/21 05:04:09;;;;;;;5.13;3.90;;;10.70;99.90;;;;;;5006991;28;20459;-70
2023/03/21 05:06:36;;;;;;;8.33;4.13;;;10.60;99.90;;;;;;5021596;28;20558;-70
2023/03/21 05:09:06;;;;;;;7.10;4.23;;;10.70;99.90;;;;;;5024609;28;20530;-70
2023/03/21 05:11:36;;;;;;;4.70;4.07;;;10.70;99.90;;;;;;5031904;28;20252;-70
2023/03/21 05:14:03;;;;;;;9.00;4.53;;;10.70;99.90;;;;;;5022995;28;20850;-71
2023/03/21 05:16:30;;;;;;;9.27;5.17;;;10.70;99.90;;;;;;5017179;28;20861;-70
2023/03/21 05:18:57;;;;;;;7.60;5.40;;;10.70;99.90;;;;;;5023986;28;20540;-70
2023/03/21 05:21:28;;;;;;;9.40;5.27;;;10.70;99.90;;;;;;5015425;28;20206;-70
2023/03/21 05:23:57;;;;;;;10.80;5.43;;;10.70;99.90;;;;;;5024527;28;20560;-70
2023/03/21 05:26:23;;;;;;;7.87;6.57;;;10.70;99.90;;;;;;5021949;28;20836;-70
2023/03/21 05:29:01;;;;;;;7.33;5.30;;;10.60;99.90;;;;;;5022149;28;20517;-70
2023/03/21 05:31:26;;;;;;;9.03;5.23;;;10.60;99.90;;;;;;5005683;28;20853;-70
2023/03/21 05:34:03;;;;;;;7.17;4.80;;;10.60;99.90;;;;;;5010163;28;20303;-70
2023/03/21 05:36:28;;;;;;;14.40;5.10;;;10.60;99.90;;;;;;5005416;28;20507;-70
2023/03/21 05:38:54;;;;;;;7.00;4.13;;;10.60;99.90;;;;;;5023653;28;20317;-70
2023/03/21 05:41:20;;;;;;;5.03;4.00;;;10.60;99.90;;;;;;5025864;28;20250;-70
2023/03/21 05:43:46;;;;;;;7.90;4.87;;;10.60;99.90;;;;;;5002596;28;20653;-70
2023/03/21 05:46:14;;;;;;;6.83;4.43;;;10.60;99.90;;;;;;5004576;28;20470;-70
2023/03/21 05:48:41;;;;;;;6.50;3.37;;;10.60;99.90;;;;;;5016626;28;20543;-70
2023/03/21 05:51:12;;;;;;;6.30;3.53;;;10.60;99.90;;;;;;5024046;28;20466;-70
2023/03/21 05:53:37;;;;;;;4.00;2.97;;;10.60;99.90;;;;;;5004654;28;20478;-70
2023/03/21 05:56:03;;;;;;;7.50;3.10;;;10.60;99.90;;;;;;5007159;28;20209;-70
2023/03/21 05:58:45;;;;;;;3.47;3.17;;;10.60;99.90;;;;;;5020414;28;20272;-70
2023/03/21 06:01:11;;;;;;;3.40;2.57;;;10.60;99.90;;;;;;5020284;28;20466;-70
2023/03/21 06:03:40;;;;;;;6.30;3.40;;;10.60;99.90;;;;;;5021420;28;20880;-69
2023/03/21 06:06:14;;;;;;;8.20;4.27;;;10.60;99.90;;;;;;5024314;28;20453;-70
2023/03/21 06:08:48;;;;;;;7.50;3.33;;;10.70;99.90;;;;;;5000255;28;20455;-70
2023/03/21 06:11:43;;;;;;;6.80;4.50;;;10.60;99.90;;;;;;5024641;28;20451;-68
2023/03/21 06:14:18;;;;;;;4.83;3.90;;;10.60;99.90;;;;;;5015378;28;20265;-70
2023/03/21 06:16:49;;;;;;;4.30;3.90;;;10.60;99.90;;;;;;5023624;28;20483;-70
2023/03/21 06:19:15;;;;;;;6.80;3.30;;;10.60;99.90;;;;;;5023091;28;20470;-70
2023/03/21 06:21:55;;;;;;;7.07;4.03;;;10.70;99.90;;;;;;5016394;28;20514;-69
2023/03/21 06:24:21;;;;;;;9.00;4.40;;;10.70;99.90;;;;;;5003953;28;20475;-70
2023/03/21 06:26:47;;;;;;;7.37;4.77;;;10.70;99.90;;;;;;5031265;28;20246;-68
2023/03/21 06:29:13;;;;;;;6.40;4.63;;;10.60;99.90;;;;;;5012954;28;21077;-71
2023/03/21 06:31:44;;;;;;;7.13;4.30;;;10.60;99.90;;;;;;5017293;28;20447;-71
2023/03/21 06:34:10;;;;;;;3.93;3.27;;;10.70;99.90;;;;;;5020587;28;20476;-70
2023/03/21 06:36:37;;;;;;;4.87;3.47;;;10.60;99.90;;;;;;5000858;28;20218;-70
2023/03/21 06:39:04;;;;;;;8.87;4.40;;;10.60;99.90;;;;;;5020287;28;20848;-71
2023/03/21 06:41:30;;;;;;;5.70;3.77;;;10.60;99.90;;;;;;5013601;28;20475;-70
2023/03/21 06:44:01;;;;;;;6.40;3.90;;;10.50;99.90;;;;;;5000149;28;20503;-70
2023/03/21 06:46:30;;;;;;;3.77;3.10;;;10.50;99.90;;;;;;5011873;28;20528;-69
2023/03/21 06:48:55;;;;;;;5.60;3.20;;;10.50;99.90;;;;;;5018860;28;20961;-69
2023/03/21 06:51:21;;;;;;;5.90;3.10;;;10.60;99.90;;;;;;5001023;28;20285;-71
2023/03/21 06:53:58;;;;;;;2.80;2.60;;;10.60;99.90;;;;;;4982284;28;20230;-71
2023/03/21 06:56:32;;;;;;;5.87;2.83;;;10.60;99.90;;;;;;5011005;28;20468;-71
2023/03/21 06:59:01;;;;;;;6.30;4.10;;;10.60;99.90;;;;;;5004776;28;20580;-71
2023/03/21 07:01:45;;;;;;;4.10;3.33;;;10.50;99.90;;;;;;5033999;28;20484;-70
2023/03/21 07:04:12;;;;;;;7.90;3.73;;;10.50;99.90;;;;;;5021273;28;21008;-71
2023/03/21 07:06:38;;;;;;;3.63;3.17;;;10.50;99.90;;;;;;5006522;28;20552;-70
2023/03/21 07:09:05;;;;;;;9.40;3.87;;;10.50;99.90;;;;;;5014755;28;20314;-70
2023/03/21 07:11:33;;;;;;;4.13;3.20;;;10.50;99.90;;;;;;4995395;28;21095;-73
2023/03/21 07:14:00;;;;;;;9.93;4.37;;;10.50;99.90;;;;;;5002114;28;20510;-70
2023/03/21 07:16:26;;;;;;;7.40;4.47;;;10.50;99.90;;;;;;5014419;28;20461;-72
2023/03/21 07:18:52;;;;;;;4.33;3.57;;;10.60;99.90;;;;;;5013815;28;20460;-70
2023/03/21 07:21:18;;;;;;;11.03;3.50;;;10.60;99.90;;;;;;5001650;28;20249;-71
2023/03/21 07:23:44;;;;;;;7.83;4.07;;;10.60;99.90;;;;;;4997059;28;21025;-70
2023/03/21 07:26:10;;;;;;;7.13;4.37;;;10.60;99.90;;;;;;4997744;28;20459;-69
2023/03/21 07:28:35;;;;;;;7.17;4.43;;;10.50;99.90;;;;;;5033799;28;20216;-70
2023/03/21 07:31:05;;;;;;;4.80;3.60;;;10.60;99.90;;;;;;4995177;28;20213;-71
2023/03/21 07:33:32;;;;;;;4.67;3.87;;;10.60;99.90;;;;;;5036245;28;20475;-70
2023/03/21 07:36:00;;;;;;;6.07;3.93;;;10.70;99.90;;;;;;5018217;28;20525;-70
2023/03/21 07:38:26;;;;;;;6.33;4.47;;;10.70;99.90;;;;;;5000178;28;20482;-70
2023/03/21 07:40:52;;;;;;;9.83;7.10;;;10.70;99.90;;;;;;5021783;28;20455;-70
2023/03/21 07:43:19;;;;;;;10.53;5.87;;;10.80;99.90;;;;;;5023837;28;20464;-70
2023/03/21 07:45:44;;;;;;;7.80;6.50;;;10.80;99.90;;;;;;5018724;28;20688;-71
2023/03/21 07:48:11;;;;;;;18.13;8.83;;;10.80;99.90;;;;;;5004996;28;20469;-70
2023/03/21 07:50:38;;;;;;;16.87;9.33;;;10.90;99.90;;;;;;5013199;28;20633;-71
2023/03/21 07:53:06;;;;;;;8.70;6.13;;;10.90;99.90;;;;;;5023993;28;20457;-70
2023/03/21 07:55:33;;;;;;;9.77;5.57;;;10.90;99.90;;;;;;5034459;28;20471;-71
2023/03/21 07:58:01;;;;;;;5.20;4.40;;;10.90;99.90;;;;;;5018852;28;20452;-70
2023/03/21 08:00:27;;;;;;;8.03;4.60;;;10.90;99.90;;;;;;5031729;28;20524;-69
2023/03/21 08:02:54;;;;;;;10.80;4.73;;;10.90;99.90;;;;;;5021176;28;20458;-70
2023/03/21 08:05:26;;;;;;;7.17;4.67;;;10.90;99.90;;;;;;5013890;28;20697;-67
2023/03/21 08:07:52;;;;;;;5.50;3.97;;;10.90;99.90;;;;;;5004006;28;20460;-70
2023/03/21 08:10:18;;;;;;;7.27;5.00;;;11.00;99.90;;;;;;5016594;28;20467;-72
2023/03/21 08:12:44;;;;;;;5.93;4.07;;;11.00;99.90;;;;;;5034319;28;20681;-70
2023/03/21 08:15:11;;;;;;;6.23;4.87;;;11.10;99.90;;;;;;5022043;28;20831;-71
2023/03/21 08:17:38;;;;;;;5.37;3.80;;;11.10;99.90;;;;;;5010253;28;20482;-70
2023/03/21 08:20:10;;;;;;;6.37;3.30;;;11.10;99.90;;;;;;5033045;28;20562;-71
2023/03/21 08:22:36;;;;;;;12.33;3.93;;;11.00;99.90;;;;;;5036236;28;20471;-71
2023/03/21 08:25:04;;;;;;;6.17;3.77;;;11.00;99.90;;;;;;5034344;28;20475;-69
2023/03/21 08:27:31;;;;;;;6.00;4.03;;;11.10;99.90;;;;;;5011367;28;20552;-71
2023/03/21 08:29:57;;;;;;;5.50;4.07;;;11.10;99.90;;;;;;5007239;28;20455;-70
2023/03/21 08:32:28;;;;;;;4.97;3.37;;;11.10;99.90;;;;;;5010484;28;20540;-71
2023/03/21 08:34:57;;;;;;;6.33;3.70;;;11.20;99.90;;;;;;5013535;28;20520;-70
2023/03/21 08:37:23;;;;;;;7.17;4.23;;;11.20;99.90;;;;;;5036728;28;20455;-69
2023/03/21 08:39:49;;;;;;;5.17;3.30;;;11.20;99.90;;;;;;5019023;28;20461;-70
2023/03/21 08:42:15;;;;;;;9.23;4.20;;;11.20;99.90;;;;;;5022753;28;20579;-70
2023/03/21 08:44:41;;;;;;;6.37;3.87;;;11.30;99.90;;;;;;5003470;28;20230;-71
2023/03/21 08:47:07;;;;;;;4.63;4.07;;;11.20;99.90;;;;;;5036160;28;20215;-71
2023/03/21 08:49:34;;;;;;;4.60;4.10;;;11.20;99.90;;;;;;5019287;28;20205;-73
2023/03/21 08:52:00;;;;;;;3.50;3.20;;;11.30;99.90;;;;;;5039585;28;20459;-70
2023/03/21 08:54:26;;;;;;;5.80;3.80;;;11.30;99.90;;;;;;5021061;28;20483;-71
2023/03/21 08:56:52;;;;;;;4.00;3.60;;;11.30;99.90;;;;;;5024445;28;20240;-70
2023/03/21 08:59:18;;;;;;;6.67;3.70;;;11.30;99.90;;;;;;5023645;28;20559;-71
2023/03/21 09:01:44;;;;;;;5.50;4.27;;;11.30;99.90;;;;;;5010550;28;20238;-71
2023/03/21 09:04:10;;;;;;;6.33;3.50;;;11.30;99.90;;;;;;5031377;28;20730;-70
2023/03/21 09:06:44;;;;;;;13.10;3.90;;;11.30;99.90;;;;;;5023097;28;20453;-70
2023/03/21 09:09:11;;;;;;;7.03;3.47;;;11.30;99.90;;;;;;5013976;28;20478;-70
2023/03/21 09:11:37;;;;;;;10.67;3.30;;;11.30;99.90;;;;;;5019371;28;20468;-71
2023/03/21 09:14:03;;;;;;;4.60;3.87;;;11.30;99.90;;;;;;5023417;28;20570;-71
2023/03/21 09:16:29;;;;;;;5.87;3.90;;;11.30;99.90;;;;;;5003702;28;20510;-70
2023/03/21 09:18:55;;;;;;;6.57;3.43;;;11.40;99.90;;;;;;5047244;28;20538;-69
2023/03/21 09:21:22;;;;;;;5.37;3.60;;;11.40;99.90;;;;;;5031727;28;20226;-72
2023/03/21 09:23:51;;;;;;;5.80;3.73;;;11.40;99.90;;;;;;5052367;28;20459;-70
2023/03/21 09:26:18;;;;;;;4.97;3.63;;;11.50;99.90;;;;;;5017050;28;20476;-69
2023/03/21 09:28:45;;;;;;;5.30;3.60;;;11.50;99.90;;;;;;5018169;28;21876;-70
2023/03/21 09:31:15;;;;;;;6.03;3.80;;;11.50;99.90;;;;;;5024351;28;20850;-70
2023/03/21 09:33:42;;;;;;;5.07;3.80;;;11.60;99.90;;;;;;5037208;28;20479;-70
2023/03/21 09:36:12;;;;;;;5.37;3.27;;;11.50;99.90;;;;;;5035518;28;20939;-71
2023/03/21 09:38:41;;;;;;;4.70;4.23;;;11.60;99.90;;;;;;5017161;28;20475;-71
2023/03/21 09:41:38;;;;;;;4.30;3.70;;;11.60;99.90;;;;;;5032617;28;20809;-71
2023/03/21 09:44:17;;;;;;;5.60;3.57;;;11.60;99.90;;;;;;5024026;28;21073;-71
2023/03/21 09:46:55;;;;;;;3.53;3.13;;;11.70;99.90;;;;;;5032394;28;20452;-70
2023/03/21 09:49:29;;;;;;;8.37;3.97;;;11.70;99.90;;;;;;5018035;28;20476;-71
2023/03/21 09:51:58;;;;;;;4.90;3.80;;;11.70;99.90;;;;;;5022859;28;20525;-69
2023/03/21 09:54:37;;;;;;;6.70;3.43;;;11.70;99.90;;;;;;5005606;28;20475;-70
2023/03/21 09:57:28;;;;;;;5.93;4.13;;;11.70;99.90;;;;;;5039684;28;20513;-71
2023/03/21 09:59:57;;;;;;;4.57;3.53;;;11.70;99.90;;;;;;5034601;28;20540;-71
2023/03/21 10:02:45;;;;;;;7.27;4.00;;;11.70;99.90;;;;;;5033674;28;20488;-71
2023/03/21 10:05:25;;;;;;;6.63;4.30;;;11.70;99.90;;;;;;5024931;28;20466;-71
2023/03/21 10:08:21;;;;;;;6.90;4.50;;;11.70;99.90;;;;;;4987591;28;20468;-71
2023/03/21 10:10:54;;;;;;;5.47;3.77;;;11.80;99.90;;;;;;5020458;28;20463;-70
2023/03/21 10:13:26;;;;;;;4.37;3.40;;;11.80;99.90;;;;;;5008309;28;20470;-70
2023/03/21 10:15:57;;;;;;;8.73;3.90;;;11.80;99.90;;;;;;5021216;28;20450;-71
2023/03/21 10:18:27;;;;;;;5.80;3.97;;;11.90;99.90;;;;;;5019703;28;20469;-70
2023/03/21 10:20:53;;;;;;;4.43;3.87;;;11.80;99.90;;;;;;5037838;28;20449;-71
2023/03/21 10:23:25;;;;;;;7.70;4.50;;;11.90;99.90;;;;;;5036443;28;20501;-69
2023/03/21 10:25:55;;;;;;;6.57;4.90;;;11.80;99.90;;;;;;5042297;28;20447;-72
2023/03/21 10:28:27;;;;;;;6.27;4.67;;;11.80;99.90;;;;;;5020266;28;20527;-70
2023/03/21 10:31:03;;;;;;;5.23;4.43;;;11.80;99.90;;;;;;5040174;28;20503;-71
2023/03/21 10:33:35;;;;;;;7.87;3.37;;;11.90;99.90;;;;;;5039253;28;20501;-71
2023/03/21 10:36:06;;;;;;;6.57;3.60;;;11.90;99.90;;;;;;5024114;28;20521;-71
2023/03/21 10:38:32;;;;;;;3.30;3.03;;;11.90;99.90;;;;;;5031893;28;20486;-71
2023/03/21 10:40:57;;;;;;;5.40;3.50;;;11.90;99.90;;;;;;5024187;28;20466;-72
2023/03/21 10:43:26;;;;;;;4.67;3.87;;;12.00;99.90;;;;;;5022732;28;20533;-71
2023/03/21 10:45:53;;;;;;;10.10;3.90;;;12.00;99.90;;;;;;5039329;28;20245;-71
2023/03/21 10:48:19;;;;;;;5.00;4.47;;;11.90;99.90;;;;;;5040964;28;20461;-71
2023/03/21 10:50:48;;;;;;;5.77;3.60;;;11.90;99.90;;;;;;5031984;28;20500;-71
2023/03/21 10:53:37;;;;;;;5.50;4.27;;;12.00;99.90;;;;;;5042685;28;20469;-73
2023/03/21 10:56:08;;;;;;;4.00;3.33;;;12.00;99.90;;;;;;5022663;28;20465;-71
2023/03/21 10:58:44;;;;;;;6.80;3.07;;;11.90;99.90;;;;;;5031089;28;20461;-70
2023/03/21 11:01:14;;;;;;;7.30;4.07;;;11.90;99.90;;;;;;5021043;28;20478;-70
2023/03/21 11:03:45;;;;;;;3.93;2.97;;;11.90;99.90;;;;;;5032983;28;20481;-70
2023/03/21 11:06:13;;;;;;;4.60;3.23;;;12.00;99.90;;;;;;5007256;28;20461;-70
2023/03/21 11:08:53;;;;;;;4.07;3.47;;;12.00;99.90;;;;;;5018893;28;20513;-70
2023/03/21 11:11:27;;;;;;;4.77;3.40;;;12.00;99.90;;;;;;5006953;28;21029;-70
2023/03/21 11:14:05;;;;;;;8.50;3.57;;;12.00;99.90;;;;;;5022741;28;20468;-72
2023/03/21 11:16:35;;;;;;;3.80;3.33;;;12.00;99.90;;;;;;5037457;28;20908;-71
2023/03/21 11:19:11;;;;;;;3.63;3.10;;;12.00;99.90;;;;;;5005113;28;21007;-71
2023/03/21 11:21:37;;;;;;;3.77;3.30;;;12.10;99.90;;;;;;5019935;28;20468;-71
2023/03/21 11:24:05;;;;;;;4.40;3.27;;;12.10;99.90;;;;;;5040497;28;20473;-71
2023/03/21 11:26:37;;;;;;;4.63;3.20;;;12.10;99.90;;;;;;5019634;28;20525;-71
2023/03/21 11:29:39;;;;;;;5.40;3.10;;;12.10;99.90;;;;;;5021940;28;20469;-71
2023/03/21 11:32:11;;;;;;;5.60;3.20;;;12.10;99.90;;;;;;4940999;28;20480;-71
2023/03/21 11:34:49;;;;;;;5.30;3.23;;;12.10;99.90;;;;;;5027729;28;20989;-71
2023/03/21 11:37:23;;;;;;;4.23;3.50;;;12.10;99.90;;;;;;4979615;28;20906;-70
2023/03/21 11:40:14;;;;;;;3.57;2.90;;;12.20;99.90;;;;;;5025724;28;20450;-70
2023/03/21 11:42:43;;;;;;;3.57;2.73;;;12.20;99.90;;;;;;5008846;28;20458;-69
2023/03/21 11:45:17;;;;;;;6.53;3.57;;;12.20;99.90;;;;;;5009906;28;20462;-71
2023/03/21 11:47:44;;;;;;;5.60;3.30;;;12.20;99.90;;;;;;5022719;28;20505;-69
2023/03/21 11:50:18;;;;;;;9.23;3.40;;;12.20;99.90;;;;;;5038749;28;20479;-69
2023/03/21 11:53:25;;;;;;;4.43;3.17;;;12.20;99.90;;;;;;5023457;28;20484;-71
2023/03/21 11:56:16;;;;;;;4.47;2.80;;;12.20;99.90;;;;;;4982415;28;20457;-70
2023/03/21 11:59:00;;;;;;;5.00;3.90;;;12.20;99.90;;;;;;5028125;28;20503;-71
2023/03/21 12:01:32;;;;;;;3.40;3.03;;;12.20;99.90;;;;;;5003182;28;20470;-71
2023/03/21 12:04:03;;;;;;;5.30;3.00;;;12.20;99.90;;;;;;5021118;28;20459;-70
2023/03/21 12:06:59;;;;;;;7.93;3.50;;;12.20;99.90;;;;;;5020238;28;20460;-70
2023/03/21 12:09:41;;;;;;;3.50;2.90;;;12.30;99.90;;;;;;5011571;28;20585;-71
2023/03/21 12:12:22;;;;;;;3.03;2.73;;;12.30;99.90;;;;;;5023326;28;20459;-71
2023/03/21 12:15:09;;;;;;;5.20;3.40;;;12.30;99.90;;;;;;5008271;28;20485;-71
2023/03/21 12:17:55;;;;;;;4.80;3.23;;;12.30;99.90;;;;;;5035619;28;21023;-71
2023/03/21 12:20:38;;;;;;;3.50;3.17;;;12.40;99.90;;;;;;5022816;28;20528;-70
2023/03/21 12:23:37;;;;;;;3.83;3.20;;;12.40;99.90;;;;;;5038170;28;20990;-70
2023/03/21 12:26:03;;;;;;;2.83;2.63;;;12.40;99.90;;;;;;5020051;28;20497;-71
2023/03/21 12:28:53;;;;;;;4.53;2.73;;;12.40;99.90;;;;;;5041876;28;20487;-71
2023/03/21 12:31:57;;;;;;;3.40;2.67;;;12.50;99.90;;;;;;5024522;28;20276;-71
2023/03/21 12:34:25;;;;;;;3.13;2.87;;;12.50;99.90;;;;;;5045560;28;20484;-72
2023/03/21 12:37:03;;;;;;;3.03;2.73;;;12.50;99.90;;;;;;5032006;28;20480;-71
2023/03/21 12:39:32;;;;;;;4.17;2.93;;;12.50;99.90;;;;;;5030725;28;20469;-69
2023/03/21 12:42:25;;;;;;;4.23;3.00;;;12.50;99.90;;;;;;5031160;28;21000;-71
2023/03/21 12:44:57;;;;;;;3.67;2.90;;;12.50;99.90;;;;;;5048885;28;20449;-71
2023/03/21 12:47:26;;;;;;;3.30;2.73;;;12.50;99.90;;;;;;5030971;28;20498;-71
2023/03/21 12:50:16;;;;;;;3.33;2.70;;;12.50;99.90;;;;;;5015218;28;20458;-70
2023/03/21 12:52:47;;;;;;;5.93;3.53;;;12.50;99.90;;;;;;5015109;28;20467;-70
2023/03/21 12:55:15;;;;;;;4.77;3.53;;;12.50;99.90;;;;;;5015736;28;20616;-71
2023/03/21 12:58:02;;;;;;;6.20;4.87;;;12.50;99.90;;;;;;5045387;28;20450;-70
2023/03/21 13:00:40;;;;;;;5.67;4.57;;;12.50;99.90;;;;;;5016441;28;20477;-71
2023/03/21 13:03:31;;;;;;;7.50;3.40;;;12.50;99.90;;;;;;5024457;28;20532;-71
2023/03/21 13:06:00;;;;;;;6.50;3.60;;;12.50;99.90;;;;;;5014413;28;20885;-71
2023/03/21 13:08:43;;;;;;;3.30;3.00;;;12.50;99.90;;;;;;5038003;28;20589;-71
2023/03/21 13:11:16;;;;;;;4.50;3.23;;;12.50;99.90;;;;;;5032132;28;20468;-71
2023/03/21 13:13:54;;;;;;;4.07;3.60;;;12.50;99.90;;;;;;5011021;28;20502;-71
2023/03/21 13:16:35;;;;;;;5.23;4.10;;;12.60;99.90;;;;;;5006772;28;20832;-71